Portada
METAR-TAF:

METAR-TAF

Aeroports :

Ambon, Indonèsia

latitud: 03-42S, longitud: 128-05E, altitud: 12 m

Observació

L'informe es va fer fa 2 hores i 7 minuts, a les 09:30 UTC
Vent 5 kt del Sud/Sud-Est, variant entre Est i Sud
Temperatura 26°C
Humitat 84%
Pressió 1012 hPa
Visibilitat 10 km o més
Núvols disperses a una alçada de 1800 ft

METAR: WAPP 180930Z 15005KT 080V190 9999 SCT018 26/23 Q1012 NOSIG

Hora: 20:37 (11:37 UTC)

Pronòstic

L'informe es va fer fa 6 hores i 37 minuts, a les 05:00 UTC
Pronòstic vàlid del 18 a les 06 UTC al 19 a les 06 UTC
Vent 6 kt del Sud/Sud-Est
Visibilitat: 9000 m
Núvols disperses a una alçada de 1800 ft
Temporalment
l' 18 a les 09 UTC al 18 a les 11 UTC
Visibilitat: 5000 m
Cel ennuvolat a una alçada de 1500 ft
pluja

TAF: WAPP 180500Z 1806/1906 15006KT 9000 SCT018 TEMPO 1809/1811 5000 -RA BKN015

Observacions i pronòstics meteorològics de més de 4000 aeroports (METAR i TAF).

Les estacions disponibles són els punts grocs i vermells al mapa.

Posi el ratolí al punt desitjat per veure el nom de l'estació.

Feu clic per veure les observacions i els pronòstics meteorològics.

Per canviar el mapa: feu clic els botons verds amb una creu de color negre per apropar; al botó verd amb un guió per allunyar la imatge; o en les fletxes verdes per a mapes adjacents.


METAR-TAF: